sensor_id;sensor_type;location;lat;lon;timestamp;P1;P2;P0
69224;PMS1003;56333;51.306;17.056;2023-04-01T00:00:26;3.60;2.10;
69224;PMS1003;56333;51.306;17.056;2023-04-01T00:01:55;3.60;2.00;
69224;PMS1003;56333;51.306;17.056;2023-04-01T00:03:26;3.50;2.00;
69224;PMS1003;56333;51.306;17.056;2023-04-01T00:04:57;3.60;2.10;
69224;PMS1003;56333;51.306;17.056;2023-04-01T00:06:26;4.20;2.10;
69224;PMS1003;56333;51.306;17.056;2023-04-01T00:07:56;6.00;2.00;
69224;PMS1003;56333;51.306;17.056;2023-04-01T00:09:25;4.10;1.90;
69224;PMS1003;56333;51.306;17.056;2023-04-01T00:10:54;3.80;1.80;
69224;PMS1003;56333;51.306;17.056;2023-04-01T00:12:24;2.90;1.70;
69224;PMS1003;56333;51.306;17.056;2023-04-01T00:13:53;4.70;2.10;
69224;PMS1003;56333;51.306;17.056;2023-04-01T00:15:22;4.10;2.20;
69224;PMS1003;56333;51.306;17.056;2023-04-01T00:16:51;5.10;2.00;
69224;PMS1003;56333;51.306;17.056;2023-04-01T00:18:20;5.10;2.10;
69224;PMS1003;56333;51.306;17.056;2023-04-01T00:19:49;4.20;2.10;
69224;PMS1003;56333;51.306;17.056;2023-04-01T00:21:19;4.10;2.00;
69224;PMS1003;56333;51.306;17.056;2023-04-01T00:22:48;3.40;2.00;
69224;PMS1003;56333;51.306;17.056;2023-04-01T00:24:17;5.10;2.10;
69224;PMS1003;56333;51.306;17.056;2023-04-01T00:25:47;3.60;1.80;
69224;PMS1003;56333;51.306;17.056;2023-04-01T00:27:15;4.40;1.90;
69224;PMS1003;56333;51.306;17.056;2023-04-01T00:28:44;5.90;2.30;
69224;PMS1003;56333;51.306;17.056;2023-04-01T00:30:15;5.80;2.20;
69224;PMS1003;56333;51.306;17.056;2023-04-01T00:31:45;4.10;2.20;
69224;PMS1003;56333;51.306;17.056;2023-04-01T00:33:14;5.60;2.20;
69224;PMS1003;56333;51.306;17.056;2023-04-01T00:34:44;4.20;2.20;
69224;PMS1003;56333;51.306;17.056;2023-04-01T00:36:16;5.20;2.30;
69224;PMS1003;56333;51.306;17.056;2023-04-01T00:37:47;4.70;2.20;
69224;PMS1003;56333;51.306;17.056;2023-04-01T00:39:16;3.50;2.00;
69224;PMS1003;56333;51.306;17.056;2023-04-01T00:40:47;4.40;2.20;
69224;PMS1003;56333;51.306;17.056;2023-04-01T00:42:17;4.90;2.10;
69224;PMS1003;56333;51.306;17.056;2023-04-01T00:43:47;5.00;2.20;
69224;PMS1003;56333;51.306;17.056;2023-04-01T00:45:37;5.00;2.00;
69224;PMS1003;56333;51.306;17.056;2023-04-01T00:47:07;5.50;2.20;
69224;PMS1003;56333;51.306;17.056;2023-04-01T00:48:38;4.40;2.10;
69224;PMS1003;56333;51.306;17.056;2023-04-01T00:50:10;3.80;2.00;
69224;PMS1003;56333;51.306;17.056;2023-04-01T00:51:40;4.00;2.20;
69224;PMS1003;56333;51.306;17.056;2023-04-01T00:53:10;4.60;2.40;
69224;PMS1003;56333;51.306;17.056;2023-04-01T00:54:42;5.10;2.40;
69224;PMS1003;56333;51.306;17.056;2023-04-01T00:56:17;4.90;2.30;
69224;PMS1003;56333;51.306;17.056;2023-04-01T00:57:50;4.20;2.30;
69224;PMS1003;56333;51.306;17.056;2023-04-01T00:59:26;5.70;2.20;
69224;PMS1003;56333;51.306;17.056;2023-04-01T01:00:59;4.20;2.20;
69224;PMS1003;56333;51.306;17.056;2023-04-01T01:02:28;5.40;2.40;
69224;PMS1003;56333;51.306;17.056;2023-04-01T01:03:59;4.80;2.30;
69224;PMS1003;56333;51.306;17.056;2023-04-01T01:05:42;3.60;2.30;
69224;PMS1003;56333;51.306;17.056;2023-04-01T01:07:29;4.60;2.50;
69224;PMS1003;56333;51.306;17.056;2023-04-01T01:09:20;4.40;2.60;
69224;PMS1003;56333;51.306;17.056;2023-04-01T01:10:55;5.10;2.40;
69224;PMS1003;56333;51.306;17.056;2023-04-01T01:12:28;4.30;2.40;
69224;PMS1003;56333;51.306;17.056;2023-04-01T01:14:08;5.10;2.60;
69224;PMS1003;56333;51.306;17.056;2023-04-01T01:15:44;4.70;2.90;
69224;PMS1003;56333;51.306;17.056;2023-04-01T01:17:22;5.10;2.80;
69224;PMS1003;56333;51.306;17.056;2023-04-01T01:19:01;5.00;2.30;
69224;PMS1003;56333;51.306;17.056;2023-04-01T01:25:33;4.30;2.30;
69224;PMS1003;56333;51.306;17.056;2023-04-01T01:27:10;4.40;2.40;
69224;PMS1003;56333;51.306;17.056;2023-04-01T01:28:51;5.20;2.60;
69224;PMS1003;56333;51.306;17.056;2023-04-01T01:30:40;6.20;2.60;
69224;PMS1003;56333;51.306;17.056;2023-04-01T01:32:24;5.50;2.60;
69224;PMS1003;56333;51.306;17.056;2023-04-01T01:34:16;5.20;2.40;
69224;PMS1003;56333;51.306;17.056;2023-04-01T01:35:50;6.50;2.80;
69224;PMS1003;56333;51.306;17.056;2023-04-01T01:37:22;3.50;2.40;
69224;PMS1003;56333;51.306;17.056;2023-04-01T01:38:52;5.60;2.90;
69224;PMS1003;56333;51.306;17.056;2023-04-01T01:40:22;6.10;2.40;
69224;PMS1003;56333;51.306;17.056;2023-04-01T01:41:54;4.90;2.40;
69224;PMS1003;56333;51.306;17.056;2023-04-01T01:43:29;5.60;2.60;
69224;PMS1003;56333;51.306;17.056;2023-04-01T01:45:01;5.80;2.60;
69224;PMS1003;56333;51.306;17.056;2023-04-01T01:46:32;5.40;2.70;
69224;PMS1003;56333;51.306;17.056;2023-04-01T01:48:03;6.10;2.80;
69224;PMS1003;56333;51.306;17.056;2023-04-01T01:49:34;5.40;2.80;
69224;PMS1003;56333;51.306;17.056;2023-04-01T01:51:05;6.10;3.20;
69224;PMS1003;56333;51.306;17.056;2023-04-01T01:52:34;6.10;2.80;
69224;PMS1003;56333;51.306;17.056;2023-04-01T01:54:04;6.20;2.60;
69224;PMS1003;56333;51.306;17.056;2023-04-01T01:55:34;6.20;2.50;
69224;PMS1003;56333;51.306;17.056;2023-04-01T01:57:08;5.00;2.60;
69224;PMS1003;56333;51.306;17.056;2023-04-01T01:58:44;5.20;2.30;
69224;PMS1003;56333;51.306;17.056;2023-04-01T02:00:18;5.30;2.30;
69224;PMS1003;56333;51.306;17.056;2023-04-01T02:01:51;5.50;2.40;
69224;PMS1003;56333;51.306;17.056;2023-04-01T02:03:23;5.20;2.40;
69224;PMS1003;56333;51.306;17.056;2023-04-01T02:04:53;6.10;2.40;
69224;PMS1003;56333;51.306;17.056;2023-04-01T02:06:27;4.90;2.50;
69224;PMS1003;56333;51.306;17.056;2023-04-01T02:08:03;5.30;2.50;
69224;PMS1003;56333;51.306;17.056;2023-04-01T02:09:34;4.90;2.20;
69224;PMS1003;56333;51.306;17.056;2023-04-01T02:11:05;5.40;2.40;
69224;PMS1003;56333;51.306;17.056;2023-04-01T02:12:39;5.70;2.60;
69224;PMS1003;56333;51.306;17.056;2023-04-01T02:14:12;5.60;2.40;
69224;PMS1003;56333;51.306;17.056;2023-04-01T02:15:47;6.10;2.30;
69224;PMS1003;56333;51.306;17.056;2023-04-01T02:17:20;4.70;2.20;
69224;PMS1003;56333;51.306;17.056;2023-04-01T02:18:53;6.00;2.50;
69224;PMS1003;56333;51.306;17.056;2023-04-01T02:20:24;6.70;2.40;
69224;PMS1003;56333;51.306;17.056;2023-04-01T02:22:01;6.30;2.40;
69224;PMS1003;56333;51.306;17.056;2023-04-01T02:23:33;5.80;2.60;
69224;PMS1003;56333;51.306;17.056;2023-04-01T02:25:06;4.80;2.40;
69224;PMS1003;56333;51.306;17.056;2023-04-01T02:26:37;4.80;2.30;
69224;PMS1003;56333;51.306;17.056;2023-04-01T02:28:08;6.70;2.60;
69224;PMS1003;56333;51.306;17.056;2023-04-01T02:31:09;6.00;2.50;
69224;PMS1003;56333;51.306;17.056;2023-04-01T02:32:39;6.20;2.70;
69224;PMS1003;56333;51.306;17.056;2023-04-01T02:34:08;5.90;2.30;
69224;PMS1003;56333;51.306;17.056;2023-04-01T02:35:38;6.20;2.60;
69224;PMS1003;56333;51.306;17.056;2023-04-01T02:37:07;5.60;2.60;
69224;PMS1003;56333;51.306;17.056;2023-04-01T02:38:38;6.20;2.20;
69224;PMS1003;56333;51.306;17.056;2023-04-01T02:40:11;5.60;2.40;
69224;PMS1003;56333;51.306;17.056;2023-04-01T02:41:45;6.30;2.70;
69224;PMS1003;56333;51.306;17.056;2023-04-01T02:43:15;7.10;2.80;
69224;PMS1003;56333;51.306;17.056;2023-04-01T02:44:44;6.70;2.60;
69224;PMS1003;56333;51.306;17.056;2023-04-01T02:46:14;7.10;2.80;
69224;PMS1003;56333;51.306;17.056;2023-04-01T02:47:43;6.80;2.80;
69224;PMS1003;56333;51.306;17.056;2023-04-01T02:49:12;4.60;2.40;
69224;PMS1003;56333;51.306;17.056;2023-04-01T02:50:41;4.10;2.40;
69224;PMS1003;56333;51.306;17.056;2023-04-01T02:52:10;6.60;2.70;
69224;PMS1003;56333;51.306;17.056;2023-04-01T02:53:38;6.30;2.40;
69224;PMS1003;56333;51.306;17.056;2023-04-01T02:55:10;5.80;2.60;
69224;PMS1003;56333;51.306;17.056;2023-04-01T02:58:06;5.40;2.50;
69224;PMS1003;56333;51.306;17.056;2023-04-01T02:59:35;5.80;2.70;
69224;PMS1003;56333;51.306;17.056;2023-04-01T03:01:04;5.50;2.40;
69224;PMS1003;56333;51.306;17.056;2023-04-01T03:02:33;5.50;2.50;
69224;PMS1003;56333;51.306;17.056;2023-04-01T03:04:02;5.50;2.70;
69224;PMS1003;56333;51.306;17.056;2023-04-01T03:05:31;5.70;2.60;
69224;PMS1003;56333;51.306;17.056;2023-04-01T03:07:00;5.50;2.60;
69224;PMS1003;56333;51.306;17.056;2023-04-01T03:08:29;4.50;2.40;
69224;PMS1003;56333;51.306;17.056;2023-04-01T03:09:58;5.50;2.80;
69224;PMS1003;56333;51.306;17.056;2023-04-01T03:11:27;5.10;2.70;
69224;PMS1003;56333;51.306;17.056;2023-04-01T03:12:55;5.20;2.40;
69224;PMS1003;56333;51.306;17.056;2023-04-01T03:14:25;6.80;2.40;
69224;PMS1003;56333;51.306;17.056;2023-04-01T03:15:54;5.50;2.20;
69224;PMS1003;56333;51.306;17.056;2023-04-01T03:17:23;5.60;2.00;
69224;PMS1003;56333;51.306;17.056;2023-04-01T03:18:52;4.20;2.40;
69224;PMS1003;56333;51.306;17.056;2023-04-01T03:20:24;3.70;2.30;
69224;PMS1003;56333;51.306;17.056;2023-04-01T03:21:53;5.90;2.50;
69224;PMS1003;56333;51.306;17.056;2023-04-01T03:23:23;6.20;2.50;
69224;PMS1003;56333;51.306;17.056;2023-04-01T03:24:51;5.10;2.40;
69224;PMS1003;56333;51.306;17.056;2023-04-01T03:26:21;4.80;2.50;
69224;PMS1003;56333;51.306;17.056;2023-04-01T03:27:50;5.60;2.50;
69224;PMS1003;56333;51.306;17.056;2023-04-01T03:29:19;3.80;2.40;
69224;PMS1003;56333;51.306;17.056;2023-04-01T03:30:48;6.20;2.50;
69224;PMS1003;56333;51.306;17.056;2023-04-01T03:32:17;5.00;2.30;
69224;PMS1003;56333;51.306;17.056;2023-04-01T03:33:46;5.30;2.20;
69224;PMS1003;56333;51.306;17.056;2023-04-01T03:35:16;6.70;2.60;
69224;PMS1003;56333;51.306;17.056;2023-04-01T03:36:45;5.40;2.40;
69224;PMS1003;56333;51.306;17.056;2023-04-01T03:38:14;5.40;2.40;
69224;PMS1003;56333;51.306;17.056;2023-04-01T03:39:43;4.70;2.50;
69224;PMS1003;56333;51.306;17.056;2023-04-01T03:41:15;6.50;2.40;
69224;PMS1003;56333;51.306;17.056;2023-04-01T03:42:45;4.60;2.50;
69224;PMS1003;56333;51.306;17.056;2023-04-01T03:44:14;5.50;2.40;
69224;PMS1003;56333;51.306;17.056;2023-04-01T03:45:48;7.20;2.50;
69224;PMS1003;56333;51.306;17.056;2023-04-01T03:47:17;5.50;2.50;
69224;PMS1003;56333;51.306;17.056;2023-04-01T03:48:47;6.20;2.10;
69224;PMS1003;56333;51.306;17.056;2023-04-01T03:50:16;5.00;2.50;
69224;PMS1003;56333;51.306;17.056;2023-04-01T03:51:45;5.20;2.60;
69224;PMS1003;56333;51.306;17.056;2023-04-01T03:53:14;5.50;3.00;
69224;PMS1003;56333;51.306;17.056;2023-04-01T03:54:44;5.00;2.70;
69224;PMS1003;56333;51.306;17.056;2023-04-01T03:56:13;4.90;2.60;
69224;PMS1003;56333;51.306;17.056;2023-04-01T03:57:45;6.10;2.50;
69224;PMS1003;56333;51.306;17.056;2023-04-01T03:59:15;4.60;2.50;
69224;PMS1003;56333;51.306;17.056;2023-04-01T04:00:44;5.90;2.70;
69224;PMS1003;56333;51.306;17.056;2023-04-01T04:02:13;5.80;2.70;
69224;PMS1003;56333;51.306;17.056;2023-04-01T04:03:43;5.90;2.80;
69224;PMS1003;56333;51.306;17.056;2023-04-01T04:05:13;6.20;2.80;
69224;PMS1003;56333;51.306;17.056;2023-04-01T04:06:42;4.90;2.60;
69224;PMS1003;56333;51.306;17.056;2023-04-01T04:08:11;6.90;2.40;
69224;PMS1003;56333;51.306;17.056;2023-04-01T04:09:40;5.00;2.60;
69224;PMS1003;56333;51.306;17.056;2023-04-01T04:11:10;4.80;2.50;
69224;PMS1003;56333;51.306;17.056;2023-04-01T04:12:40;6.60;2.60;
69224;PMS1003;56333;51.306;17.056;2023-04-01T04:14:09;4.70;2.50;
69224;PMS1003;56333;51.306;17.056;2023-04-01T04:15:39;4.80;2.60;
69224;PMS1003;56333;51.306;17.056;2023-04-01T04:17:09;6.10;2.90;
69224;PMS1003;56333;51.306;17.056;2023-04-01T04:18:42;5.40;2.70;
69224;PMS1003;56333;51.306;17.056;2023-04-01T04:20:12;7.00;2.90;
69224;PMS1003;56333;51.306;17.056;2023-04-01T04:21:42;7.00;3.10;
69224;PMS1003;56333;51.306;17.056;2023-04-01T04:23:12;5.60;2.70;
69224;PMS1003;56333;51.306;17.056;2023-04-01T04:24:41;5.40;2.60;
69224;PMS1003;56333;51.306;17.056;2023-04-01T04:26:14;6.40;3.00;
69224;PMS1003;56333;51.306;17.056;2023-04-01T04:27:48;5.70;2.60;
69224;PMS1003;56333;51.306;17.056;2023-04-01T04:29:17;6.40;2.80;
69224;PMS1003;56333;51.306;17.056;2023-04-01T04:30:46;5.80;2.70;
69224;PMS1003;56333;51.306;17.056;2023-04-01T04:32:15;4.20;2.80;
69224;PMS1003;56333;51.306;17.056;2023-04-01T04:33:43;6.50;3.00;
69224;PMS1003;56333;51.306;17.056;2023-04-01T04:35:13;6.50;3.20;
69224;PMS1003;56333;51.306;17.056;2023-04-01T04:36:42;7.80;3.20;
69224;PMS1003;56333;51.306;17.056;2023-04-01T04:38:11;6.40;3.40;
69224;PMS1003;56333;51.306;17.056;2023-04-01T04:39:40;5.60;3.50;
69224;PMS1003;56333;51.306;17.056;2023-04-01T04:41:13;7.20;3.50;
69224;PMS1003;56333;51.306;17.056;2023-04-01T04:42:45;5.90;3.20;
69224;PMS1003;56333;51.306;17.056;2023-04-01T04:44:14;5.40;3.20;
69224;PMS1003;56333;51.306;17.056;2023-04-01T04:45:44;8.40;3.20;
69224;PMS1003;56333;51.306;17.056;2023-04-01T04:47:13;5.10;3.10;
69224;PMS1003;56333;51.306;17.056;2023-04-01T04:48:42;6.30;3.40;
69224;PMS1003;56333;51.306;17.056;2023-04-01T04:50:12;5.70;3.30;
69224;PMS1003;56333;51.306;17.056;2023-04-01T04:51:43;5.60;3.50;
69224;PMS1003;56333;51.306;17.056;2023-04-01T04:53:14;5.40;3.60;
69224;PMS1003;56333;51.306;17.056;2023-04-01T04:54:44;5.60;4.20;
69224;PMS1003;56333;51.306;17.056;2023-04-01T04:56:16;6.10;4.10;
69224;PMS1003;56333;51.306;17.056;2023-04-01T04:58:05;6.20;4.00;
69224;PMS1003;56333;51.306;17.056;2023-04-01T04:59:34;6.10;3.70;
69224;PMS1003;56333;51.306;17.056;2023-04-01T05:01:44;5.80;4.00;
69224;PMS1003;56333;51.306;17.056;2023-04-01T05:03:13;4.70;3.70;
69224;PMS1003;56333;51.306;17.056;2023-04-01T05:04:42;6.40;3.80;
69224;PMS1003;56333;51.306;17.056;2023-04-01T05:06:13;5.50;3.70;
69224;PMS1003;56333;51.306;17.056;2023-04-01T05:07:42;7.50;4.30;
69224;PMS1003;56333;51.306;17.056;2023-04-01T05:09:11;5.20;4.20;
69224;PMS1003;56333;51.306;17.056;2023-04-01T05:10:41;6.80;4.40;
69224;PMS1003;56333;51.306;17.056;2023-04-01T05:12:11;6.50;4.40;
69224;PMS1003;56333;51.306;17.056;2023-04-01T05:13:55;5.80;4.50;
69224;PMS1003;56333;51.306;17.056;2023-04-01T05:15:24;7.10;3.90;
69224;PMS1003;56333;51.306;17.056;2023-04-01T05:16:54;5.20;3.70;
69224;PMS1003;56333;51.306;17.056;2023-04-01T05:18:23;5.20;3.40;
69224;PMS1003;56333;51.306;17.056;2023-04-01T05:19:52;5.30;3.50;
69224;PMS1003;56333;51.306;17.056;2023-04-01T05:21:21;5.80;3.80;
69224;PMS1003;56333;51.306;17.056;2023-04-01T05:22:53;5.00;4.00;
69224;PMS1003;56333;51.306;17.056;2023-04-01T05:24:24;6.10;4.20;
69224;PMS1003;56333;51.306;17.056;2023-04-01T05:25:53;6.90;4.00;
69224;PMS1003;56333;51.306;17.056;2023-04-01T05:27:23;5.90;4.00;
69224;PMS1003;56333;51.306;17.056;2023-04-01T05:28:51;5.30;4.00;
69224;PMS1003;56333;51.306;17.056;2023-04-01T05:30:21;5.90;4.00;
69224;PMS1003;56333;51.306;17.056;2023-04-01T05:32:31;6.20;3.50;
69224;PMS1003;56333;51.306;17.056;2023-04-01T05:34:00;6.10;3.30;
69224;PMS1003;56333;51.306;17.056;2023-04-01T05:35:29;4.40;3.10;
69224;PMS1003;56333;51.306;17.056;2023-04-01T05:36:58;4.70;3.40;
69224;PMS1003;56333;51.306;17.056;2023-04-01T05:38:27;5.60;3.30;
69224;PMS1003;56333;51.306;17.056;2023-04-01T05:39:57;5.20;3.50;
69224;PMS1003;56333;51.306;17.056;2023-04-01T05:41:26;5.40;3.70;
69224;PMS1003;56333;51.306;17.056;2023-04-01T05:42:56;6.40;4.20;
69224;PMS1003;56333;51.306;17.056;2023-04-01T05:44:25;7.40;4.60;
69224;PMS1003;56333;51.306;17.056;2023-04-01T05:46:35;6.60;4.20;
69224;PMS1003;56333;51.306;17.056;2023-04-01T05:48:21;6.10;4.20;
69224;PMS1003;56333;51.306;17.056;2023-04-01T05:49:50;5.50;3.90;
69224;PMS1003;56333;51.306;17.056;2023-04-01T05:51:19;5.90;3.50;
69224;PMS1003;56333;51.306;17.056;2023-04-01T05:52:47;4.80;3.40;
69224;PMS1003;56333;51.306;17.056;2023-04-01T05:54:17;5.70;3.90;
69224;PMS1003;56333;51.306;17.056;2023-04-01T05:55:46;4.30;3.30;
69224;PMS1003;56333;51.306;17.056;2023-04-01T05:57:15;5.60;3.50;
69224;PMS1003;56333;51.306;17.056;2023-04-01T05:58:44;6.50;3.60;
69224;PMS1003;56333;51.306;17.056;2023-04-01T06:00:19;4.70;3.70;
69224;PMS1003;56333;51.306;17.056;2023-04-01T06:01:48;5.80;4.10;
69224;PMS1003;56333;51.306;17.056;2023-04-01T06:03:17;6.00;4.10;
69224;PMS1003;56333;51.306;17.056;2023-04-01T06:04:46;5.90;4.00;
69224;PMS1003;56333;51.306;17.056;2023-04-01T06:06:19;4.80;3.30;
69224;PMS1003;56333;51.306;17.056;2023-04-01T06:07:52;5.10;3.30;
69224;PMS1003;56333;51.306;17.056;2023-04-01T06:09:28;5.50;3.10;
69224;PMS1003;56333;51.306;17.056;2023-04-01T06:11:11;4.90;3.10;
69224;PMS1003;56333;51.306;17.056;2023-04-01T06:12:54;4.00;3.00;
69224;PMS1003;56333;51.306;17.056;2023-04-01T06:14:37;6.30;3.50;
69224;PMS1003;56333;51.306;17.056;2023-04-01T06:16:18;4.70;3.50;
69224;PMS1003;56333;51.306;17.056;2023-04-01T06:18:11;6.30;3.30;
69224;PMS1003;56333;51.306;17.056;2023-04-01T06:20:11;6.30;3.20;
69224;PMS1003;56333;51.306;17.056;2023-04-01T06:24:00;4.30;2.80;
69224;PMS1003;56333;51.306;17.056;2023-04-01T06:26:10;5.00;3.00;
69224;PMS1003;56333;51.306;17.056;2023-04-01T06:28:12;4.20;2.90;
69224;PMS1003;56333;51.306;17.056;2023-04-01T06:30:03;5.50;3.50;
69224;PMS1003;56333;51.306;17.056;2023-04-01T06:31:54;5.10;3.30;
69224;PMS1003;56333;51.306;17.056;2023-04-01T06:33:52;5.30;3.40;
69224;PMS1003;56333;51.306;17.056;2023-04-01T06:35:55;6.40;3.50;
69224;PMS1003;56333;51.306;17.056;2023-04-01T06:37:54;4.60;3.20;
69224;PMS1003;56333;51.306;17.056;2023-04-01T06:40:08;5.10;3.30;
69224;PMS1003;56333;51.306;17.056;2023-04-01T06:42:06;4.70;3.30;
69224;PMS1003;56333;51.306;17.056;2023-04-01T06:44:04;6.40;3.20;
69224;PMS1003;56333;51.306;17.056;2023-04-01T06:46:02;6.10;3.40;
69224;PMS1003;56333;51.306;17.056;2023-04-01T06:48:09;4.10;3.00;
69224;PMS1003;56333;51.306;17.056;2023-04-01T06:50:43;5.00;3.40;
69224;PMS1003;56333;51.306;17.056;2023-04-01T06:52:22;5.40;3.70;
69224;PMS1003;56333;51.306;17.056;2023-04-01T06:54:42;5.20;3.10;
69224;PMS1003;56333;51.306;17.056;2023-04-01T06:57:00;4.30;2.90;
69224;PMS1003;56333;51.306;17.056;2023-04-01T06:58:37;5.10;3.10;
69224;PMS1003;56333;51.306;17.056;2023-04-01T07:00:25;5.10;2.80;
69224;PMS1003;56333;51.306;17.056;2023-04-01T07:02:00;4.30;3.00;
69224;PMS1003;56333;51.306;17.056;2023-04-01T07:03:35;3.80;2.70;
69224;PMS1003;56333;51.306;17.056;2023-04-01T07:05:07;4.40;2.80;
69224;PMS1003;56333;51.306;17.056;2023-04-01T07:06:43;4.70;2.80;
69224;PMS1003;56333;51.306;17.056;2023-04-01T07:08:17;4.40;2.90;
69224;PMS1003;56333;51.306;17.056;2023-04-01T07:09:52;5.10;2.90;
69224;PMS1003;56333;51.306;17.056;2023-04-01T07:11:32;4.30;2.90;
69224;PMS1003;56333;51.306;17.056;2023-04-01T07:13:47;4.10;3.10;
69224;PMS1003;56333;51.306;17.056;2023-04-01T07:15:24;4.10;2.80;
69224;PMS1003;56333;51.306;17.056;2023-04-01T07:16:58;3.90;2.60;
69224;PMS1003;56333;51.306;17.056;2023-04-01T07:18:37;4.60;2.30;
69224;PMS1003;56333;51.306;17.056;2023-04-01T07:20:16;3.80;2.30;
69224;PMS1003;56333;51.306;17.056;2023-04-01T07:21:49;4.40;2.10;
69224;PMS1003;56333;51.306;17.056;2023-04-01T07:25:51;3.00;1.90;
69224;PMS1003;56333;51.306;17.056;2023-04-01T07:27:39;3.50;2.00;
69224;PMS1003;56333;51.306;17.056;2023-04-01T07:29:13;3.20;2.30;
69224;PMS1003;56333;51.306;17.056;2023-04-01T07:31:00;2.60;1.80;
69224;PMS1003;56333;51.306;17.056;2023-04-01T07:32:44;4.50;2.00;
69224;PMS1003;56333;51.306;17.056;2023-04-01T07:34:21;2.40;1.50;
69224;PMS1003;56333;51.306;17.056;2023-04-01T07:35:56;2.30;1.50;
69224;PMS1003;56333;51.306;17.056;2023-04-01T07:37:33;2.30;1.40;
69224;PMS1003;56333;51.306;17.056;2023-04-01T07:39:17;2.90;1.40;
69224;PMS1003;56333;51.306;17.056;2023-04-01T07:41:07;2.10;1.30;
69224;PMS1003;56333;51.306;17.056;2023-04-01T07:42:53;2.30;1.60;
69224;PMS1003;56333;51.306;17.056;2023-04-01T07:44:40;2.70;1.50;
69224;PMS1003;56333;51.306;17.056;2023-04-01T07:46:23;3.50;1.90;
69224;PMS1003;56333;51.306;17.056;2023-04-01T07:48:14;2.70;1.70;
69224;PMS1003;56333;51.306;17.056;2023-04-01T07:49:57;2.60;1.60;
69224;PMS1003;56333;51.306;17.056;2023-04-01T07:51:40;2.40;1.30;
69224;PMS1003;56333;51.306;17.056;2023-04-01T07:53:20;2.10;1.40;
69224;PMS1003;56333;51.306;17.056;2023-04-01T07:55:00;3.90;1.50;
69224;PMS1003;56333;51.306;17.056;2023-04-01T07:56:42;1.90;1.20;
69224;PMS1003;56333;51.306;17.056;2023-04-01T07:58:25;1.70;1.40;
69224;PMS1003;56333;51.306;17.056;2023-04-01T08:00:07;3.20;1.60;
69224;PMS1003;56333;51.306;17.056;2023-04-01T08:01:52;2.50;1.60;
69224;PMS1003;56333;51.306;17.056;2023-04-01T08:03:41;4.20;2.40;
69224;PMS1003;56333;51.306;17.056;2023-04-01T08:05:28;2.00;1.50;
69224;PMS1003;56333;51.306;17.056;2023-04-01T08:07:07;3.50;1.70;
69224;PMS1003;56333;51.306;17.056;2023-04-01T08:08:52;1.90;1.50;
69224;PMS1003;56333;51.306;17.056;2023-04-01T08:11:25;3.30;1.70;
69224;PMS1003;56333;51.306;17.056;2023-04-01T08:13:26;2.60;1.50;
69224;PMS1003;56333;51.306;17.056;2023-04-01T08:15:44;2.40;1.30;
69224;PMS1003;56333;51.306;17.056;2023-04-01T08:17:43;2.00;1.40;
69224;PMS1003;56333;51.306;17.056;2023-04-01T08:19:36;2.80;1.80;
69224;PMS1003;56333;51.306;17.056;2023-04-01T08:21:23;2.30;1.50;
69224;PMS1003;56333;51.306;17.056;2023-04-01T08:23:00;3.70;1.80;
69224;PMS1003;56333;51.306;17.056;2023-04-01T08:26:12;2.10;1.30;
69224;PMS1003;56333;51.306;17.056;2023-04-01T08:27:48;1.90;1.20;
69224;PMS1003;56333;51.306;17.056;2023-04-01T08:29:23;1.40;1.00;
69224;PMS1003;56333;51.306;17.056;2023-04-01T08:31:02;3.90;1.20;
69224;PMS1003;56333;51.306;17.056;2023-04-01T08:32:38;1.50;1.10;
69224;PMS1003;56333;51.306;17.056;2023-04-01T08:34:16;2.80;1.00;
69224;PMS1003;56333;51.306;17.056;2023-04-01T08:35:51;4.10;1.10;
69224;PMS1003;56333;51.306;17.056;2023-04-01T08:37:25;1.90;1.30;
69224;PMS1003;56333;51.306;17.056;2023-04-01T08:39:02;1.10;0.90;
69224;PMS1003;56333;51.306;17.056;2023-04-01T08:40:59;1.60;1.00;
69224;PMS1003;56333;51.306;17.056;2023-04-01T08:43:08;1.70;0.90;
69224;PMS1003;56333;51.306;17.056;2023-04-01T08:45:09;2.30;0.90;
69224;PMS1003;56333;51.306;17.056;2023-04-01T08:47:21;1.80;1.10;
69224;PMS1003;56333;51.306;17.056;2023-04-01T08:49:22;1.80;1.20;
69224;PMS1003;56333;51.306;17.056;2023-04-01T08:51:41;1.90;1.20;
69224;PMS1003;56333;51.306;17.056;2023-04-01T08:53:22;2.60;1.70;
69224;PMS1003;56333;51.306;17.056;2023-04-01T08:55:21;2.20;1.50;
69224;PMS1003;56333;51.306;17.056;2023-04-01T08:57:10;1.90;1.50;
69224;PMS1003;56333;51.306;17.056;2023-04-01T08:59:18;2.20;1.50;
69224;PMS1003;56333;51.306;17.056;2023-04-01T09:01:24;1.90;1.60;
69224;PMS1003;56333;51.306;17.056;2023-04-01T09:08:08;3.20;2.40;
69224;PMS1003;56333;51.306;17.056;2023-04-01T09:10:09;4.00;2.40;
69224;PMS1003;56333;51.306;17.056;2023-04-01T09:12:20;3.40;2.20;
69224;PMS1003;56333;51.306;17.056;2023-04-01T09:14:52;3.40;2.50;
69224;PMS1003;56333;51.306;17.056;2023-04-01T09:16:53;3.50;2.50;
69224;PMS1003;56333;51.306;17.056;2023-04-01T09:19:12;3.90;2.90;
69224;PMS1003;56333;51.306;17.056;2023-04-01T09:21:24;3.50;2.80;
69224;PMS1003;56333;51.306;17.056;2023-04-01T09:23:35;4.00;2.70;
69224;PMS1003;56333;51.306;17.056;2023-04-01T09:25:48;3.50;2.80;
69224;PMS1003;56333;51.306;17.056;2023-04-01T09:27:31;4.80;3.10;
69224;PMS1003;56333;51.306;17.056;2023-04-01T09:29:18;4.10;2.60;
69224;PMS1003;56333;51.306;17.056;2023-04-01T09:31:49;4.50;2.70;
69224;PMS1003;56333;51.306;17.056;2023-04-01T09:36:45;3.60;2.70;
69224;PMS1003;56333;51.306;17.056;2023-04-01T09:38:29;3.60;2.90;
69224;PMS1003;56333;51.306;17.056;2023-04-01T09:40:21;4.00;3.10;
69224;PMS1003;56333;51.306;17.056;2023-04-01T09:42:27;4.40;3.00;
69224;PMS1003;56333;51.306;17.056;2023-04-01T09:44:25;3.60;2.90;
69224;PMS1003;56333;51.306;17.056;2023-04-01T09:46:18;4.00;2.90;
69224;PMS1003;56333;51.306;17.056;2023-04-01T09:48:08;3.00;2.40;
69224;PMS1003;56333;51.306;17.056;2023-04-01T09:50:16;3.80;2.40;
69224;PMS1003;56333;51.306;17.056;2023-04-01T09:52:09;4.50;2.70;
69224;PMS1003;56333;51.306;17.056;2023-04-01T09:54:01;3.00;2.50;
69224;PMS1003;56333;51.306;17.056;2023-04-01T09:56:22;3.90;2.70;
69224;PMS1003;56333;51.306;17.056;2023-04-01T09:58:26;3.90;2.90;
69224;PMS1003;56333;51.306;17.056;2023-04-01T10:01:04;3.90;3.40;
69224;PMS1003;56333;51.306;17.056;2023-04-01T10:08:38;3.30;2.50;
69224;PMS1003;56333;51.306;17.056;2023-04-01T10:13:50;4.40;3.00;
69224;PMS1003;56333;51.306;17.056;2023-04-01T10:16:27;5.20;3.20;
69224;PMS1003;56333;51.306;17.056;2023-04-01T10:21:19;4.10;3.00;
69224;PMS1003;56333;51.306;17.056;2023-04-01T10:23:32;4.20;3.30;
69224;PMS1003;56333;51.306;17.056;2023-04-01T10:29:37;3.50;2.60;
69224;PMS1003;56333;51.306;17.056;2023-04-01T10:34:35;5.00;2.70;
69224;PMS1003;56333;51.306;17.056;2023-04-01T10:36:40;3.90;2.40;
69224;PMS1003;56333;51.306;17.056;2023-04-01T10:41:48;4.60;3.10;
69224;PMS1003;56333;51.306;17.056;2023-04-01T10:47:30;4.00;3.00;
69224;PMS1003;56333;51.306;17.056;2023-04-01T10:49:51;3.90;2.60;
69224;PMS1003;56333;51.306;17.056;2023-04-01T10:52:23;4.80;3.00;
69224;PMS1003;56333;51.306;17.056;2023-04-01T10:54:36;4.30;3.00;
69224;PMS1003;56333;51.306;17.056;2023-04-01T10:56:46;4.40;3.90;
69224;PMS1003;56333;51.306;17.056;2023-04-01T11:02:03;6.30;4.10;